Flight Track Log - Related Links

Times and Time Zones

All times are in EDT time to prevent confusion due to time zone crossing. See the UAL4843 flight status page for this flight to view local times or setup timezone preferences in your user account.

Time Position Orientation Groundspeed Altitude Reporting Facility
EDT Latitude Longitude Course Direction KTS MPH feet Rate Location/Type
Sat 10:14:36 AM 41.9436 -72.6800 75° East 137 158 700  Level Boston Center
Sat 10:15:24 AM 41.9522 -72.6356 75° East 150 173 1,800 1,313 Climbing Boston Center
Sat 10:16:12 AM 41.9397 -72.5936 112° Southeast 179 206 2,800 1,339 Climbing Boston Center
Sat 10:17:25 AM 41.8856 -72.6269 205° Southwest 173 199 4,500 1,433 Climbing Boston Center
Sat 10:18:26 AM 41.8478 -72.6603 213° Southwest 163 188 6,000 732 Climbing Boston Center
Sat 10:19:28 AM 41.8103 -72.7019 220° Southwest 194 223 6,000  Level Boston Center
Sat 10:20:22 AM 41.7622 -72.7433 213° Southwest 219 252 6,000  Level Boston Center
Sat 10:21:29 AM 41.7081 -72.7961 216° Southwest 220 253 6,000  Level Boston Center
Sat 10:22:28 AM 41.6597 -72.8458 218° Southwest 222 255 6,000  Level Boston Center
Sat 10:24:40 AM 41.5500 -72.9500 215° Southwest 226 260 6,000  Level New York TRACON
Sat 10:25:40 AM 41.5000 -73.0000 217° Southwest 225 259 6,000  Level New York TRACON
Sat 10:26:40 AM 41.4667 -73.0667 236° Southwest 224 258 6,000  Level New York TRACON
Sat 10:27:40 AM 41.4333 -73.1333 236° Southwest 221 254 6,000  Level New York TRACON
Sat 10:28:40 AM 41.4167 -73.2167 255° West 222 255 6,000 50 Level New York TRACON
Sat 10:29:40 AM 41.3833 -73.2833 236° Southwest 217 250 6,100  Climbing New York TRACON
Sat 10:30:40 AM 41.3500 -73.3667 242° Southwest 217 250 6,000 -50 Descending New York TRACON
Sat 10:31:40 AM 41.3333 -73.4333 252° West 215 247 6,000  Level New York TRACON
Sat 10:32:40 AM 41.3000 -73.5000 236° Southwest 214 246 6,000  Level New York TRACON
Sat 10:33:40 AM 41.2833 -73.5667 252° West 213 245 6,000  Level New York TRACON
Sat 10:34:34 AM 41.2667 -73.6500 255° West 206 237 6,000 -53 Level New York TRACON
Sat 10:35:34 AM 41.2667 -73.7167 270° West 210 242 5,900 -500 Descending New York TRACON
Sat 10:36:34 AM 41.2667 -73.8000 270° West 231 266 5,000 -429 Descending New York TRACON
Sat 10:37:40 AM 41.2500 -73.8833 255° West 213 245 5,000  Level New York TRACON
Sat 10:38:34 AM 41.2500 -73.9667 270° West 212 244 5,000  Level New York TRACON
Sat 10:39:34 AM 41.2333 -74.0333 252° West 212 244 5,000  Level New York TRACON
Sat 10:40:40 AM 41.2167 -74.1167 255° West 221 254 5,000  Level New York TRACON
Sat 10:41:34 AM 41.1833 -74.1833 236° Southwest 228 262 5,000  Level New York TRACON
Sat 10:42:40 AM 41.1333 -74.2500 225° Southwest 234 269 5,000  Level New York TRACON
Sat 10:43:40 AM 41.1000 -74.3167 236° Southwest 232 267 5,000  Level New York TRACON
Sat 10:44:40 AM 41.0500 -74.3833 225° Southwest 231 266 5,000  Level New York TRACON
Sat 10:45:40 AM 41.0000 -74.4167 207° Southwest 233 268 5,000  Level New York TRACON
Sat 10:46:40 AM 40.9500 -74.4667 217° Southwest 231 266 5,000  Level New York TRACON
Sat 10:47:40 AM 40.9000 -74.5167 217° Southwest 236 272 5,000  Level New York TRACON
Sat 10:48:40 AM 40.8333 -74.5333 191° South 240 276 5,000  Level New York TRACON
Sat 10:49:40 AM 40.7667 -74.5333 180° South 242 278 5,000  Level New York TRACON
Sat 10:50:40 AM 40.7000 -74.5333 180° South 250 288 5,000  Level New York TRACON
Sat 10:51:40 AM 40.6333 -74.4667 143° Southeast 246 283 5,000 -350 Level New York TRACON
Sat 10:52:40 AM 40.6000 -74.4000 123° Southeast 254 292 4,300 -900 Descending New York TRACON
Sat 10:53:40 AM 40.5667 -74.3333 123° Southeast 262 302 3,200 -1,150 Descending New York TRACON
Sat 10:54:40 AM 40.5833 -74.2500 75° East 224 258 2,000 -1,000 Descending New York TRACON
Sat 10:55:40 AM 40.6167 -74.2167 37° Northeast 188 216 1,200 -800 Descending New York TRACON
Sat 10:56:40 AM 40.6667 -74.1833 27° Northeast 141 162 400 -800 Descending New York TRACON
Sat 10:58:00 AM 40.6833 -74.1667 93° East  Level FlightAware Approximate
Sat 11:05:00 AM 40.6925 -74.1687 93° East  Level Estimated

Login

Don't have an account? Register now (free) for customized features, flight alerts, and more!